Time;durP1;ratioP1;P1;durP2;ratioP2;P2;SDS_P1;SDS_P2;PMS_P1;PMS_P2;Temp;Humidity;BMP_temperature;BMP_pressure;BME280_temperature;BME280_humidity;BME280_pressure;Samples;Min_cycle;Max_cycle;Signal;HPM_P1;HPM_P2
2022/08/07 00:01:44;;;;;;;8.77;6.20;;;14.90;84.20;;;;;;5034281;28;20565;-47
2022/08/07 00:04:11;;;;;;;8.35;5.97;;;14.90;84.00;;;;;;5034492;28;20152;-46
2022/08/07 00:06:37;;;;;;;7.32;5.57;;;14.90;84.40;;;;;;5031399;28;20564;-47
2022/08/07 00:09:04;;;;;;;9.50;6.20;;;14.90;84.50;;;;;;5032430;28;20103;-47
2022/08/07 00:11:32;;;;;;;7.78;6.45;;;14.80;84.20;;;;;;5033095;28;20132;-47
2022/08/07 00:13:59;;;;;;;8.05;5.78;;;14.80;85.20;;;;;;5032155;28;20237;-49
2022/08/07 00:16:26;;;;;;;9.55;6.85;;;14.80;84.60;;;;;;5030224;28;20167;-44
2022/08/07 00:18:52;;;;;;;7.30;6.18;;;14.70;84.80;;;;;;5030199;28;20425;-47
2022/08/07 00:21:20;;;;;;;7.30;5.90;;;14.70;85.00;;;;;;5031965;28;20465;-47
2022/08/07 00:23:47;;;;;;;6.20;5.47;;;14.70;85.00;;;;;;5031683;28;20511;-46
2022/08/07 00:26:14;;;;;;;10.90;6.15;;;14.60;85.30;;;;;;5032573;28;20053;-49
2022/08/07 00:28:43;;;;;;;10.52;6.35;;;14.60;85.60;;;;;;5029129;28;20128;-43
2022/08/07 00:31:10;;;;;;;7.50;6.30;;;14.50;86.20;;;;;;5024023;28;20079;-44
2022/08/07 00:33:37;;;;;;;7.18;6.30;;;14.50;87.20;;;;;;5056842;28;20041;-47
2022/08/07 00:36:04;;;;;;;7.38;5.80;;;14.50;86.70;;;;;;5028392;28;20537;-41
2022/08/07 00:38:31;;;;;;;6.15;5.55;;;14.50;86.50;;;;;;5029881;28;20485;-47
2022/08/07 00:40:58;;;;;;;7.53;5.50;;;14.50;86.70;;;;;;5036724;28;20087;-45
2022/08/07 00:43:24;;;;;;;9.77;6.22;;;14.40;86.30;;;;;;5022026;28;20497;-48
2022/08/07 00:45:53;;;;;;;8.30;5.93;;;14.50;86.70;;;;;;5032346;28;20103;-45
2022/08/07 00:48:19;;;;;;;9.18;6.15;;;14.40;87.60;;;;;;5032785;28;20133;-47
2022/08/07 00:50:49;;;;;;;8.15;5.90;;;14.30;87.30;;;;;;5018614;28;20136;-46
2022/08/07 00:53:16;;;;;;;7.55;6.25;;;14.30;87.90;;;;;;5021134;28;20049;-45
2022/08/07 00:55:43;;;;;;;6.03;5.43;;;14.30;88.70;;;;;;5032047;28;20136;-43
2022/08/07 00:58:09;;;;;;;7.22;6.10;;;14.20;88.30;;;;;;5032996;28;20053;-46
2022/08/07 01:00:36;;;;;;;9.35;6.10;;;14.20;88.50;;;;;;5014803;28;20463;-46
2022/08/07 01:03:04;;;;;;;7.53;6.40;;;14.20;89.10;;;;;;5029264;28;20085;-48
2022/08/07 01:05:31;;;;;;;8.00;6.32;;;14.10;89.50;;;;;;5024285;28;20188;-41
2022/08/07 01:07:58;;;;;;;10.57;7.05;;;14.10;90.00;;;;;;5023025;28;20085;-46
2022/08/07 01:10:25;;;;;;;7.97;6.78;;;14.00;90.20;;;;;;5030504;28;20152;-47
2022/08/07 01:12:52;;;;;;;7.75;5.95;;;14.00;90.20;;;;;;5032084;28;20393;-44
2022/08/07 01:15:18;;;;;;;8.07;6.10;;;14.00;90.10;;;;;;5031904;28;20050;-48
2022/08/07 01:17:45;;;;;;;8.43;6.32;;;13.90;90.20;;;;;;5029816;28;20088;-41
2022/08/07 01:20:15;;;;;;;8.93;6.03;;;13.90;90.20;;;;;;5030249;28;20112;-46
2022/08/07 01:22:43;;;;;;;7.90;6.60;;;13.90;90.30;;;;;;5031765;28;20050;-45
2022/08/07 01:25:11;;;;;;;9.70;7.20;;;13.90;90.60;;;;;;5031277;28;20068;-47
2022/08/07 01:27:37;;;;;;;7.57;6.20;;;13.80;91.10;;;;;;5018714;28;20456;-45
2022/08/07 01:30:05;;;;;;;8.40;6.85;;;13.80;91.40;;;;;;5019717;28;20129;-45
2022/08/07 01:32:32;;;;;;;8.52;6.90;;;13.70;91.70;;;;;;5022792;28;20172;-46
2022/08/07 01:34:59;;;;;;;7.75;6.40;;;13.70;91.90;;;;;;5028770;28;20092;-40
2022/08/07 01:37:26;;;;;;;8.30;5.85;;;13.60;92.00;;;;;;5033700;28;20111;-46
2022/08/07 01:39:57;;;;;;;7.15;5.40;;;13.60;91.80;;;;;;5034987;28;20115;-46
2022/08/07 01:42:24;;;;;;;7.10;6.07;;;13.60;91.80;;;;;;5032256;28;20103;-45
2022/08/07 01:44:51;;;;;;;8.13;6.40;;;13.50;92.00;;;;;;5033262;28;20050;-44
2022/08/07 01:47:18;;;;;;;9.13;6.50;;;13.50;92.00;;;;;;5025732;28;20131;-46
2022/08/07 01:49:45;;;;;;;7.78;6.20;;;13.50;92.10;;;;;;5042802;28;20057;-45
2022/08/07 01:52:12;;;;;;;8.25;6.10;;;13.50;92.40;;;;;;5036675;28;20424;-44
2022/08/07 01:54:40;;;;;;;7.07;5.93;;;13.60;92.50;;;;;;5033463;28;20045;-48
2022/08/07 01:57:10;;;;;;;7.53;6.22;;;13.60;92.60;;;;;;5039818;28;20080;-45
2022/08/07 01:59:42;;;;;;;8.35;6.18;;;13.50;92.80;;;;;;5021195;28;20049;-47
2022/08/07 02:02:11;;;;;;;7.20;5.72;;;13.50;93.00;;;;;;5025543;28;20050;-48
2022/08/07 02:04:40;;;;;;;7.40;6.43;;;13.50;93.10;;;;;;5014448;28;20144;-48
2022/08/07 02:07:06;;;;;;;9.23;6.85;;;13.50;93.10;;;;;;5050445;28;20549;-46
2022/08/07 02:09:33;;;;;;;8.82;6.60;;;13.50;93.20;;;;;;5034785;28;20108;-52
2022/08/07 02:12:15;;;;;;;9.10;6.20;;;13.50;93.40;;;;;;5030665;28;20136;-45
2022/08/07 02:14:44;;;;;;;8.30;6.20;;;13.50;93.30;;;;;;5033624;28;20053;-42
2022/08/07 02:17:11;;;;;;;7.82;6.18;;;13.50;93.50;;;;;;5049797;28;20067;-50
2022/08/07 02:19:39;;;;;;;10.63;6.68;;;13.60;93.60;;;;;;5054901;28;20404;-48
2022/08/07 02:22:05;;;;;;;8.73;6.50;;;13.50;93.60;;;;;;5054623;28;20052;-48
2022/08/07 02:24:32;;;;;;;8.50;6.18;;;13.50;93.70;;;;;;5035497;28;20073;-49
2022/08/07 02:26:59;;;;;;;12.57;7.35;;;13.50;93.70;;;;;;5030027;28;20080;-49
2022/08/07 02:29:26;;;;;;;9.98;7.30;;;13.50;93.70;;;;;;5023300;28;20124;-51
2022/08/07 02:31:54;;;;;;;9.07;6.53;;;13.50;93.90;;;;;;5033879;28;20435;-46
2022/08/07 02:34:21;;;;;;;10.00;6.80;;;13.50;93.80;;;;;;5032043;28;20081;-50
2022/08/07 02:36:47;;;;;;;7.07;5.85;;;13.50;93.80;;;;;;5057493;28;20129;-50
2022/08/07 02:39:14;;;;;;;7.40;6.25;;;13.50;93.60;;;;;;5048608;28;20140;-47
2022/08/07 02:41:41;;;;;;;9.27;7.13;;;13.50;93.60;;;;;;5050255;28;20089;-47
2022/08/07 02:44:08;;;;;;;7.13;5.72;;;13.50;93.70;;;;;;5031908;28;20081;-44
2022/08/07 02:46:35;;;;;;;8.80;7.18;;;13.50;93.50;;;;;;5015321;28;20054;-41
2022/08/07 02:49:04;;;;;;;7.47;5.90;;;13.50;94.00;;;;;;5022084;28;20045;-49
2022/08/07 02:51:32;;;;;;;8.32;6.85;;;13.40;94.30;;;;;;5054099;28;20055;-50
2022/08/07 02:53:58;;;;;;;8.98;6.28;;;13.30;94.60;;;;;;5025544;28;20718;-45
2022/08/07 02:56:25;;;;;;;10.55;6.30;;;13.20;94.80;;;;;;5014285;28;20516;-48
2022/08/07 02:58:52;;;;;;;7.75;6.28;;;13.20;94.60;;;;;;5014934;28;20132;-46
2022/08/07 03:01:21;;;;;;;7.18;5.60;;;13.20;94.50;;;;;;5013335;28;20049;-46
2022/08/07 03:03:48;;;;;;;10.02;6.70;;;13.20;94.30;;;;;;5021029;28;20054;-48
2022/08/07 03:06:16;;;;;;;8.77;6.32;;;13.20;94.50;;;;;;5020413;28;20084;-46
2022/08/07 03:08:43;;;;;;;8.88;6.18;;;13.20;94.80;;;;;;5033583;28;20049;-43
2022/08/07 03:11:09;;;;;;;8.45;6.70;;;13.10;94.80;;;;;;5032676;28;20136;-48
2022/08/07 03:13:36;;;;;;;10.57;7.18;;;13.10;94.80;;;;;;5018707;28;20133;-50
2022/08/07 03:16:03;;;;;;;11.57;7.00;;;13.10;95.00;;;;;;5015693;28;20560;-46
2022/08/07 03:18:30;;;;;;;8.65;6.18;;;13.00;95.00;;;;;;5020756;28;20524;-45
2022/08/07 03:20:57;;;;;;;8.00;6.15;;;13.00;94.80;;;;;;5041242;28;20080;-44
2022/08/07 03:23:25;;;;;;;7.65;6.38;;;13.00;94.70;;;;;;5052619;28;20053;-47
2022/08/07 03:25:52;;;;;;;8.77;5.70;;;13.00;94.60;;;;;;5052499;28;20053;-47
2022/08/07 03:28:18;;;;;;;8.43;6.75;;;13.00;94.50;;;;;;5023839;28;20104;-45
2022/08/07 03:30:45;;;;;;;9.93;6.50;;;13.00;94.50;;;;;;5045296;28;20128;-43
2022/08/07 03:33:13;;;;;;;9.70;6.43;;;13.00;94.50;;;;;;5013629;28;20066;-49
2022/08/07 03:35:39;;;;;;;7.38;6.07;;;13.10;94.60;;;;;;5013536;28;20421;-49
2022/08/07 03:38:07;;;;;;;10.27;6.50;;;13.00;94.40;;;;;;5047060;28;20123;-47
2022/08/07 03:40:35;;;;;;;9.52;6.32;;;13.00;94.40;;;;;;5052520;28;20114;-47
2022/08/07 03:43:02;;;;;;;8.50;6.63;;;13.00;94.60;;;;;;5023896;28;20081;-48
2022/08/07 03:45:29;;;;;;;8.05;6.80;;;13.00;94.40;;;;;;5018598;28;20049;-46
2022/08/07 03:47:56;;;;;;;7.78;5.75;;;12.90;94.50;;;;;;5015382;28;20046;-50
2022/08/07 03:50:23;;;;;;;7.72;6.55;;;12.90;94.60;;;;;;5031013;28;20476;-47
2022/08/07 03:52:50;;;;;;;8.07;6.10;;;12.90;94.70;;;;;;5036580;28;20049;-44
2022/08/07 03:55:17;;;;;;;6.60;5.63;;;12.90;94.70;;;;;;5021426;28;20148;-48
2022/08/07 03:57:45;;;;;;;9.32;6.60;;;13.00;94.60;;;;;;5031364;28;20140;-48
2022/08/07 04:00:13;;;;;;;8.75;6.00;;;12.80;94.60;;;;;;5015347;28;20080;-46
2022/08/07 04:02:41;;;;;;;9.77;6.80;;;12.80;94.50;;;;;;5025175;28;20053;-47
2022/08/07 04:05:08;;;;;;;9.43;6.10;;;12.80;94.70;;;;;;5026408;28;20675;-49
2022/08/07 04:07:35;;;;;;;7.85;5.78;;;12.80;94.90;;;;;;5024381;28;20087;-47
2022/08/07 04:10:02;;;;;;;7.70;5.93;;;12.80;94.70;;;;;;5029423;28;20149;-48
2022/08/07 04:12:29;;;;;;;8.20;6.43;;;12.80;94.50;;;;;;5030721;28;20079;-48
2022/08/07 04:14:58;;;;;;;7.63;6.07;;;12.80;94.60;;;;;;5031102;28;20120;-45
2022/08/07 04:17:24;;;;;;;8.43;6.00;;;12.70;94.50;;;;;;5030225;28;20135;-47
2022/08/07 04:19:51;;;;;;;8.25;6.57;;;12.80;94.50;;;;;;5030932;28;20489;-45
2022/08/07 04:22:18;;;;;;;8.65;5.72;;;12.80;94.70;;;;;;5024797;28;20464;-47
2022/08/07 04:24:45;;;;;;;7.35;6.30;;;12.70;94.80;;;;;;5029964;28;20057;-42
2022/08/07 04:27:11;;;;;;;8.82;5.70;;;12.70;94.80;;;;;;5013871;28;20129;-47
2022/08/07 04:29:38;;;;;;;7.45;5.82;;;12.70;94.60;;;;;;5029936;28;20128;-46
2022/08/07 04:32:08;;;;;;;8.43;6.55;;;12.70;94.70;;;;;;5024880;28;20513;-46
2022/08/07 04:34:34;;;;;;;8.95;6.55;;;12.70;94.80;;;;;;5028641;28;20137;-50
2022/08/07 04:37:01;;;;;;;8.45;6.90;;;12.70;94.90;;;;;;5033533;28;20060;-47
2022/08/07 04:39:28;;;;;;;9.10;7.00;;;12.70;95.00;;;;;;5036135;28;20131;-45
2022/08/07 04:41:55;;;;;;;10.05;6.28;;;12.70;95.10;;;;;;5032126;28;20053;-46
2022/08/07 04:44:21;;;;;;;10.20;6.68;;;12.70;95.10;;;;;;5025794;28;20037;-47
2022/08/07 04:46:54;;;;;;;9.13;6.20;;;12.70;95.00;;;;;;5020264;28;20567;-44
2022/08/07 04:49:24;;;;;;;7.72;6.43;;;12.70;95.40;;;;;;5027787;28;20053;-47
2022/08/07 04:51:56;;;;;;;7.95;5.50;;;12.70;95.70;;;;;;5028503;28;20149;-47
2022/08/07 04:54:27;;;;;;;10.07;6.55;;;12.60;95.80;;;;;;5052510;28;20048;-46
2022/08/07 04:56:58;;;;;;;12.45;6.68;;;12.60;95.90;;;;;;5026987;28;20077;-47
2022/08/07 04:59:28;;;;;;;7.70;5.90;;;12.60;95.90;;;;;;5031877;28;20080;-46
2022/08/07 05:01:57;;;;;;;8.38;6.22;;;12.60;95.90;;;;;;5025118;28;20304;-47
2022/08/07 05:04:29;;;;;;;8.05;5.80;;;12.60;95.80;;;;;;5030420;28;20073;-46
2022/08/07 05:06:58;;;;;;;8.80;6.22;;;12.70;95.80;;;;;;5030362;28;20452;-46
2022/08/07 05:09:27;;;;;;;9.02;6.45;;;12.70;95.70;;;;;;5029252;28;20045;-46
2022/08/07 05:11:54;;;;;;;8.82;6.45;;;12.80;95.90;;;;;;5030903;28;20096;-47
2022/08/07 05:14:25;;;;;;;7.25;6.18;;;12.70;96.00;;;;;;5029703;28;20396;-45
2022/08/07 05:16:52;;;;;;;6.97;5.78;;;12.80;96.10;;;;;;5027809;28;20046;-49
2022/08/07 05:19:20;;;;;;;8.35;6.47;;;12.70;96.00;;;;;;5036211;28;20140;-48
2022/08/07 05:21:50;;;;;;;8.98;6.13;;;12.80;95.90;;;;;;5031893;28;20080;-47
2022/08/07 05:24:17;;;;;;;11.50;7.55;;;12.80;95.70;;;;;;5042892;28;20471;-49
2022/08/07 05:26:43;;;;;;;10.25;6.57;;;12.90;95.70;;;;;;5021443;28;20430;-47
2022/08/07 05:29:10;;;;;;;8.73;7.20;;;12.90;95.60;;;;;;5060703;28;20104;-47
2022/08/07 05:31:39;;;;;;;8.00;5.82;;;13.00;95.50;;;;;;5020760;28;20050;-48
2022/08/07 05:34:07;;;;;;;7.97;6.72;;;13.00;95.30;;;;;;5033876;28;20489;-46
2022/08/07 05:36:33;;;;;;;10.23;6.50;;;13.10;95.30;;;;;;5029237;28;20124;-48
2022/08/07 05:39:02;;;;;;;13.32;9.07;;;13.10;95.20;;;;;;5028749;28;20132;-44
2022/08/07 05:41:28;;;;;;;12.95;9.00;;;13.20;95.90;;;;;;5025047;28;20057;-48
2022/08/07 05:43:56;;;;;;;11.40;8.02;;;13.20;96.50;;;;;;5025530;28;20140;-38
2022/08/07 05:46:22;;;;;;;11.10;8.18;;;13.40;96.80;;;;;;5034106;28;20081;-45
2022/08/07 05:48:49;;;;;;;10.93;8.75;;;13.40;96.80;;;;;;5017079;28;20103;-43
2022/08/07 05:51:16;;;;;;;10.27;8.43;;;13.50;96.80;;;;;;5019141;28;20576;-48
2022/08/07 05:53:43;;;;;;;14.73;10.60;;;13.70;96.70;;;;;;5037084;28;20496;-46
2022/08/07 05:56:12;;;;;;;10.90;7.55;;;13.80;97.00;;;;;;5033472;28;20577;-47
2022/08/07 05:58:39;;;;;;;11.57;7.60;;;13.90;96.80;;;;;;5027876;28;20046;-45
2022/08/07 06:01:06;;;;;;;12.40;9.13;;;14.00;96.40;;;;;;5032596;28;20500;-48
2022/08/07 06:03:32;;;;;;;15.65;11.18;;;14.20;96.50;;;;;;5028859;28;20085;-41
2022/08/07 06:05:59;;;;;;;15.48;11.88;;;14.30;96.80;;;;;;5032890;28;20053;-45
2022/08/07 06:08:26;;;;;;;15.98;11.75;;;14.50;97.00;;;;;;5029007;28;20069;-48
2022/08/07 06:10:53;;;;;;;14.75;11.98;;;14.70;97.10;;;;;;5023344;28;20128;-46
2022/08/07 06:13:21;;;;;;;17.33;11.95;;;14.80;97.00;;;;;;5028412;28;20084;-49
2022/08/07 06:15:48;;;;;;;19.50;12.35;;;15.00;97.10;;;;;;5030917;28;20140;-48
2022/08/07 06:18:15;;;;;;;17.77;12.18;;;15.20;97.00;;;;;;5028888;28;20077;-47
2022/08/07 06:20:43;;;;;;;15.07;11.98;;;15.30;96.70;;;;;;5029949;28;20144;-46
2022/08/07 06:23:10;;;;;;;19.08;12.10;;;15.50;96.50;;;;;;5033283;28;20081;-50
2022/08/07 06:25:37;;;;;;;16.08;11.38;;;15.60;96.30;;;;;;5028976;28;20441;-46
2022/08/07 06:28:04;;;;;;;17.88;12.18;;;15.80;96.10;;;;;;5019792;28;20081;-49
2022/08/07 06:30:32;;;;;;;15.88;12.07;;;15.90;96.00;;;;;;5030378;28;20138;-50
2022/08/07 06:32:59;;;;;;;16.58;12.13;;;16.10;96.00;;;;;;5023776;28;20136;-49
2022/08/07 06:35:25;;;;;;;18.67;12.10;;;16.20;95.80;;;;;;5022708;28;20049;-51
2022/08/07 06:37:52;;;;;;;18.08;12.25;;;16.30;95.50;;;;;;5029428;28;20049;-41
2022/08/07 06:40:19;;;;;;;12.98;11.23;;;16.40;95.40;;;;;;5031646;28;20045;-47
2022/08/07 06:42:47;;;;;;;13.88;11.02;;;16.60;95.40;;;;;;5029493;28;20136;-51
2022/08/07 06:45:14;;;;;;;14.05;11.02;;;16.80;95.30;;;;;;5029676;28;20453;-48
2022/08/07 06:47:42;;;;;;;14.63;9.82;;;17.00;94.80;;;;;;5029533;28;20132;-50
2022/08/07 06:50:09;;;;;;;21.38;10.95;;;17.10;94.30;;;;;;5039792;28;20453;-49
2022/08/07 06:52:37;;;;;;;13.85;10.13;;;17.20;94.00;;;;;;5022457;28;20128;-47
2022/08/07 06:55:05;;;;;;;14.98;10.05;;;17.30;93.70;;;;;;5024192;28;20165;-47
2022/08/07 06:57:32;;;;;;;11.32;8.73;;;17.50;93.30;;;;;;5025468;28;20044;-47
2022/08/07 06:59:59;;;;;;;10.27;8.60;;;17.60;93.10;;;;;;5030772;28;20059;-46
2022/08/07 07:02:26;;;;;;;12.30;8.35;;;17.70;92.40;;;;;;5020345;28;20437;-48
2022/08/07 07:04:54;;;;;;;10.13;8.70;;;17.90;92.50;;;;;;5016536;28;20085;-46
2022/08/07 07:07:20;;;;;;;11.18;8.35;;;18.00;92.30;;;;;;5027574;28;20160;-48
2022/08/07 07:09:48;;;;;;;9.38;7.50;;;18.20;92.00;;;;;;5031545;28;20507;-48
2022/08/07 07:12:31;;;;;;;10.07;7.22;;;18.40;91.50;;;;;;5030098;28;20079;-49
2022/08/07 07:15:00;;;;;;;10.30;7.22;;;18.50;91.30;;;;;;5026854;28;20056;-48
2022/08/07 07:17:28;;;;;;;12.93;7.20;;;18.60;90.90;;;;;;5045793;28;20056;-52
2022/08/07 07:19:58;;;;;;;8.73;6.68;;;18.70;90.50;;;;;;5023486;28;20449;-48
2022/08/07 07:22:25;;;;;;;9.88;6.00;;;18.80;90.50;;;;;;5031725;28;20053;-51
2022/08/07 07:24:51;;;;;;;8.90;6.00;;;18.90;90.30;;;;;;5019016;28;20129;-51
2022/08/07 07:27:18;;;;;;;12.60;6.75;;;19.10;90.00;;;;;;5032014;28;20103;-47
2022/08/07 07:29:47;;;;;;;7.30;6.47;;;19.20;89.80;;;;;;5025544;28;20507;-49
2022/08/07 07:32:14;;;;;;;7.75;5.55;;;19.40;89.60;;;;;;5031218;28;20052;-48
2022/08/07 07:34:43;;;;;;;8.23;5.22;;;19.60;89.10;;;;;;5029517;28;20460;-52
2022/08/07 07:37:11;;;;;;;3.50;2.88;;;19.80;87.70;;;;;;5032039;28;20059;-48
2022/08/07 07:39:38;;;;;;;8.18;3.17;;;19.80;86.00;;;;;;5033108;28;20501;-50
2022/08/07 07:42:06;;;;;;;2.25;1.80;;;20.00;85.80;;;;;;5033009;28;20463;-50
2022/08/07 07:44:32;;;;;;;1.98;1.48;;;20.10;85.00;;;;;;5034617;28;20532;-51
2022/08/07 07:46:59;;;;;;;1.88;1.70;;;20.30;83.70;;;;;;5033097;28;20063;-50
2022/08/07 07:49:27;;;;;;;4.22;2.90;;;20.40;82.50;;;;;;5034445;28;20077;-50
2022/08/07 07:51:54;;;;;;;6.40;3.10;;;20.40;82.30;;;;;;5030474;28;20566;-38
2022/08/07 07:54:22;;;;;;;3.75;2.67;;;20.40;81.80;;;;;;5040501;28;20469;-49
2022/08/07 07:56:49;;;;;;;4.63;3.10;;;20.40;81.50;;;;;;5013226;28;20072;-49
2022/08/07 07:59:16;;;;;;;3.75;2.97;;;20.40;81.90;;;;;;5025018;28;20049;-49
2022/08/07 08:01:44;;;;;;;3.47;3.08;;;20.60;82.40;;;;;;5022596;28;20578;-49
2022/08/07 08:04:11;;;;;;;6.32;2.40;;;20.80;82.20;;;;;;5033690;28;20141;-47
2022/08/07 08:06:39;;;;;;;3.47;2.55;;;21.00;80.70;;;;;;5025162;28;20125;-47
2022/08/07 08:09:06;;;;;;;3.85;2.78;;;21.10;80.10;;;;;;5021029;28;20045;-49
2022/08/07 08:11:34;;;;;;;4.20;2.63;;;21.20;79.40;;;;;;5019929;28;20462;-50
2022/08/07 08:14:01;;;;;;;3.92;2.63;;;21.30;78.70;;;;;;5018313;28;20096;-50
2022/08/07 08:16:30;;;;;;;3.85;2.80;;;21.50;78.30;;;;;;5019926;28;20120;-52
2022/08/07 08:18:58;;;;;;;2.90;2.00;;;21.60;77.90;;;;;;5049413;28;20065;-51
2022/08/07 08:27:08;;;;;;;2.67;1.85;;;22.10;76.70;;;;;;5033048;28;20054;-48
2022/08/07 08:29:38;;;;;;;2.67;2.08;;;22.20;76.10;;;;;;5031557;28;20053;-46
2022/08/07 08:32:05;;;;;;;2.55;1.92;;;22.20;76.10;;;;;;5024631;28;20050;-50
2022/08/07 08:34:32;;;;;;;3.22;1.95;;;22.40;76.20;;;;;;5018027;28;20116;-51
2022/08/07 08:36:59;;;;;;;2.25;2.05;;;22.60;75.30;;;;;;5026503;28;20050;-54
2022/08/07 08:39:26;;;;;;;3.58;2.00;;;22.70;74.90;;;;;;5051263;28;20149;-53
2022/08/07 08:41:59;;;;;;;4.07;2.60;;;22.90;73.70;;;;;;5023937;28;20413;-51
2022/08/07 08:44:27;;;;;;;3.05;2.42;;;22.90;72.80;;;;;;5034232;28;20084;-47
2022/08/07 08:46:56;;;;;;;3.58;2.53;;;23.00;72.40;;;;;;5047904;28;20059;-51
2022/08/07 08:49:26;;;;;;;4.07;2.30;;;23.10;71.70;;;;;;5030222;28;20062;-52
2022/08/07 08:51:57;;;;;;;2.90;2.60;;;23.10;71.50;;;;;;5033331;28;20111;-53
2022/08/07 08:54:26;;;;;;;3.15;2.33;;;23.20;72.00;;;;;;5028701;28;20506;-55
2022/08/07 08:56:54;;;;;;;2.80;2.15;;;23.40;72.50;;;;;;5026858;28;20140;-53
2022/08/07 08:59:27;;;;;;;3.33;2.47;;;23.60;71.50;;;;;;5023983;28;20472;-49
2022/08/07 09:01:59;;;;;;;3.25;2.65;;;23.70;71.20;;;;;;5026540;28;20095;-49
2022/08/07 09:04:29;;;;;;;3.38;2.38;;;23.90;70.90;;;;;;5025379;28;20077;-52
2022/08/07 09:06:59;;;;;;;4.18;2.78;;;24.10;70.80;;;;;;5020059;28;20485;-55
2022/08/07 09:09:37;;;;;;;2.70;2.08;;;24.10;69.90;;;;;;5017630;28;20531;-55
2022/08/07 09:12:14;;;;;;;3.20;2.00;;;24.20;70.40;;;;;;5026498;28;20053;-50
2022/08/07 09:14:52;;;;;;;2.75;1.92;;;24.40;70.10;;;;;;5027119;28;20133;-53
2022/08/07 09:17:26;;;;;;;5.35;1.90;;;24.60;69.90;;;;;;5032987;28;20065;-51
2022/08/07 09:19:56;;;;;;;4.07;2.10;;;24.80;68.80;;;;;;5021424;28;20129;-52
2022/08/07 09:22:33;;;;;;;4.90;2.15;;;24.90;68.00;;;;;;5019582;28;20073;-50
2022/08/07 09:25:04;;;;;;;6.38;2.05;;;25.00;66.30;;;;;;5026985;28;20045;-52
2022/08/07 09:27:34;;;;;;;;;;;25.00;66.40;;;;;;5060431;28;20054;-55
2022/08/07 09:30:04;;;;;;;3.95;2.30;;;25.00;67.70;;;;;;5019799;28;19921;-54
2022/08/07 09:33:03;;;;;;;4.72;2.42;;;25.30;66.90;;;;;;5014830;28;20053;-54
2022/08/07 09:35:38;;;;;;;5.03;2.60;;;25.40;66.80;;;;;;5016589;28;20046;-54
2022/08/07 09:38:10;;;;;;;3.65;2.30;;;25.60;64.90;;;;;;5028881;28;20124;-55
2022/08/07 09:40:42;;;;;;;3.72;2.28;;;25.60;64.80;;;;;;5030958;28;20045;-55
2022/08/07 09:43:16;;;;;;;6.25;2.42;;;25.60;64.60;;;;;;5033452;28;20049;-51
2022/08/07 09:45:44;;;;;;;3.40;2.13;;;25.70;64.00;;;;;;5030718;28;20045;-52
2022/08/07 09:48:17;;;;;;;4.97;2.78;;;25.70;63.60;;;;;;5020602;28;20069;-56
2022/08/07 09:50:51;;;;;;;5.53;2.10;;;25.80;62.50;;;;;;5018541;28;20054;-48
2022/08/07 09:53:18;;;;;;;5.07;2.28;;;25.80;63.20;;;;;;5027144;28;20072;-52
2022/08/07 09:55:58;;;;;;;3.22;1.92;;;25.80;63.20;;;;;;5030185;28;20056;-55
2022/08/07 09:58:48;;;;;;;4.07;2.28;;;26.10;63.70;;;;;;5014872;28;20085;-55
2022/08/07 10:01:22;;;;;;;2.47;2.00;;;26.20;63.00;;;;;;5031456;28;20056;-56
2022/08/07 10:03:57;;;;;;;4.00;2.40;;;26.30;61.80;;;;;;5027576;28;20046;-52
2022/08/07 10:06:38;;;;;;;3.35;2.47;;;26.30;61.30;;;;;;5017018;28;20064;-55
2022/08/07 10:09:18;;;;;;;3.08;2.33;;;26.30;61.30;;;;;;5025462;28;20146;-54
2022/08/07 10:11:55;;;;;;;4.60;2.30;;;26.40;61.10;;;;;;5016430;28;20054;-53
2022/08/07 10:14:34;;;;;;;2.42;1.90;;;26.50;60.50;;;;;;5024022;28;20065;-51
2022/08/07 10:17:06;;;;;;;4.18;2.10;;;26.50;61.40;;;;;;5016903;28;20554;-49
2022/08/07 10:19:46;;;;;;;2.63;1.98;;;26.70;60.30;;;;;;5024400;28;20053;-42
2022/08/07 10:22:30;;;;;;;2.55;2.03;;;26.80;59.20;;;;;;5060460;28;20108;-51
2022/08/07 10:25:30;;;;;;;2.10;1.75;;;26.90;59.90;;;;;;5017774;28;20505;-56
2022/08/07 10:28:06;;;;;;;4.22;2.03;;;27.10;58.80;;;;;;4986629;28;20148;-54
2022/08/07 10:30:42;;;;;;;4.10;1.70;;;27.10;57.60;;;;;;5018505;28;20137;-55
2022/08/07 10:33:24;;;;;;;2.63;1.60;;;27.20;56.90;;;;;;5020669;28;20053;-54
2022/08/07 10:36:00;;;;;;;2.75;1.80;;;27.20;57.60;;;;;;5028054;28;20501;-54
2022/08/07 10:38:38;;;;;;;3.28;1.90;;;27.30;55.90;;;;;;5020979;28;20441;-52
2022/08/07 10:41:07;;;;;;;2.08;1.60;;;27.30;55.20;;;;;;5024232;28;20073;-56
2022/08/07 10:43:35;;;;;;;4.70;2.08;;;27.30;56.10;;;;;;5028580;28;20054;-58
2022/08/07 10:46:07;;;;;;;2.38;2.00;;;27.40;55.40;;;;;;5028179;28;20474;-54
2022/08/07 10:48:36;;;;;;;3.97;2.20;;;27.60;54.90;;;;;;5030458;28;20098;-56
2022/08/07 10:51:07;;;;;;;2.70;1.77;;;27.60;55.10;;;;;;5029778;28;20136;-57
2022/08/07 10:53:34;;;;;;;;;;;27.60;55.30;;;;;;5032447;28;20103;-53
2022/08/07 10:56:05;;;;;;;2.22;1.77;;;27.50;56.30;;;;;;5030833;28;20373;-54
2022/08/07 10:58:39;;;;;;;2.72;1.80;;;27.50;55.80;;;;;;5018524;28;20041;-55
2022/08/07 11:01:32;;;;;;;3.22;1.80;;;27.50;56.30;;;;;;5025425;28;20566;-56
2022/08/07 11:04:01;;;;;;;3.35;1.52;;;27.60;56.30;;;;;;5034603;28;20053;-55
2022/08/07 11:06:37;;;;;;;2.78;1.83;;;27.80;54.60;;;;;;5029190;28;20485;-56
2022/08/07 11:09:07;;;;;;;3.10;1.80;;;27.90;54.70;;;;;;5027758;28;20049;-56
2022/08/07 11:11:36;;;;;;;1.95;1.50;;;28.00;52.70;;;;;;5034361;28;20556;-53
2022/08/07 11:14:04;;;;;;;3.42;1.70;;;27.90;53.00;;;;;;5025602;28;20053;-57
2022/08/07 11:16:34;;;;;;;2.08;1.67;;;27.80;52.70;;;;;;5022656;28;20049;-57
2022/08/07 11:19:04;;;;;;;2.73;1.73;;;27.80;52.80;;;;;;5021800;28;20543;-54
2022/08/07 11:21:35;;;;;;;2.80;1.80;;;27.90;54.50;;;;;;5033452;28;20760;-56
2022/08/07 11:24:03;;;;;;;;;;;27.90;52.40;;;;;;5031611;28;20489;-56
2022/08/07 11:26:33;;;;;;;2.65;1.50;;;27.90;53.80;;;;;;5018570;28;19996;-56
2022/08/07 11:29:02;;;;;;;2.25;1.70;;;28.00;51.90;;;;;;5022328;28;20077;-55
2022/08/07 11:31:32;;;;;;;2.85;1.58;;;28.00;49.90;;;;;;5016650;28;20057;-53
2022/08/07 11:34:05;;;;;;;2.20;1.55;;;27.90;50.10;;;;;;5018568;28;20046;-47
2022/08/07 11:36:47;;;;;;;1.67;1.30;;;27.90;50.90;;;;;;5024880;28;20053;-50
2022/08/07 11:39:18;;;;;;;3.13;1.30;;;27.90;51.80;;;;;;5014545;28;20066;-55
2022/08/07 11:41:52;;;;;;;2.63;1.70;;;28.00;51.10;;;;;;5023470;28;20099;-56
2022/08/07 11:44:36;;;;;;;1.85;1.60;;;28.10;50.70;;;;;;5018790;28;20096;-54
2022/08/07 11:47:07;;;;;;;2.67;1.45;;;28.20;50.70;;;;;;5029455;28;20129;-56
2022/08/07 11:50:00;;;;;;;3.10;1.50;;;28.30;50.60;;;;;;5023052;28;20485;-53
2022/08/07 11:52:39;;;;;;;1.75;1.60;;;28.40;49.70;;;;;;5023750;28;20059;-56
2022/08/07 11:55:12;;;;;;;3.17;1.75;;;28.40;51.30;;;;;;5027895;28;20085;-52
2022/08/07 11:57:42;;;;;;;2.60;1.40;;;28.60;51.50;;;;;;5027831;28;20569;-55
2022/08/07 12:00:11;;;;;;;2.58;1.77;;;28.70;51.70;;;;;;5027506;28;20140;-57
2022/08/07 12:02:59;;;;;;;2.53;1.70;;;28.80;50.60;;;;;;5020766;28;20133;-56
2022/08/07 12:05:30;;;;;;;3.08;1.48;;;29.00;50.80;;;;;;5015468;28;20129;-51
2022/08/07 12:07:59;;;;;;;4.40;1.42;;;29.00;49.40;;;;;;5020222;28;20148;-56
2022/08/07 12:10:29;;;;;;;2.35;1.40;;;29.00;50.10;;;;;;5028152;28;20067;-50
2022/08/07 12:13:00;;;;;;;3.17;1.75;;;29.20;49.60;;;;;;5026397;28;20141;-50
2022/08/07 12:15:30;;;;;;;1.92;1.33;;;29.20;48.90;;;;;;5031627;28;20570;-45
2022/08/07 12:18:01;;;;;;;4.10;1.55;;;29.40;49.00;;;;;;5029665;28;20114;-54
2022/08/07 12:20:33;;;;;;;1.88;1.30;;;29.40;48.30;;;;;;5012940;28;20057;-56
2022/08/07 12:23:33;;;;;;;2.65;1.88;;;29.40;48.80;;;;;;5019098;28;20269;-57
2022/08/07 12:26:01;;;;;;;3.07;1.80;;;29.40;47.60;;;;;;5025486;28;20077;-53
2022/08/07 12:28:31;;;;;;;1.80;1.58;;;29.40;48.70;;;;;;5023174;28;20123;-57
2022/08/07 12:31:02;;;;;;;2.70;1.60;;;29.40;46.90;;;;;;5019115;28;20100;-57
2022/08/07 12:33:30;;;;;;;2.47;1.73;;;29.40;47.40;;;;;;5033205;28;20141;-58
2022/08/07 12:35:59;;;;;;;4.05;1.60;;;29.40;46.90;;;;;;5015991;28;20444;-57
2022/08/07 12:38:26;;;;;;;2.08;1.55;;;29.30;48.80;;;;;;5019436;28;20077;-48
2022/08/07 12:40:54;;;;;;;2.22;1.50;;;29.30;48.80;;;;;;5021949;28;20053;-55
2022/08/07 12:43:23;;;;;;;2.45;1.52;;;29.40;48.20;;;;;;5016109;28;20061;-52
2022/08/07 12:45:58;;;;;;;1.90;1.38;;;29.50;48.50;;;;;;5028514;28;20180;-56
2022/08/07 12:48:30;;;;;;;3.85;1.70;;;29.80;49.60;;;;;;5029309;28;20116;-55
2022/08/07 12:51:01;;;;;;;1.67;1.50;;;29.90;48.60;;;;;;5020914;28;20057;-57
2022/08/07 12:53:30;;;;;;;1.70;1.40;;;30.00;48.40;;;;;;5032635;28;20187;-55
2022/08/07 12:56:01;;;;;;;2.30;1.40;;;30.00;47.40;;;;;;5019147;28;20472;-56
2022/08/07 12:58:31;;;;;;;3.35;1.30;;;29.90;47.80;;;;;;5021213;28;20038;-53
2022/08/07 13:01:03;;;;;;;2.30;1.40;;;29.90;47.20;;;;;;5016671;28;20120;-56
2022/08/07 13:03:50;;;;;;;1.85;1.35;;;30.00;47.80;;;;;;5058967;28;20341;-52